Time;durP1;ratioP1;P1;durP2;ratioP2;P2;SDS_P1;SDS_P2;PMS_P1;PMS_P2;Temp;Humidity;BMP_temperature;BMP_pressure;BME280_temperature;BME280_humidity;BME280_pressure;Samples;Min_cycle;Max_cycle;Signal;HPM_P1;HPM_P2
2022/06/21 00:00:59;;;;;;;;;;;11.90;99.90;;;;;;4877646;29;19927;-92
2022/06/21 00:03:25;;;;;;;;;;;11.80;99.90;;;;;;4879545;29;19979;-93
2022/06/21 00:05:51;;;;;;;;;;;11.80;99.90;;;;;;4888748;29;20001;-92
2022/06/21 00:08:22;;;;;;;;;;;11.80;99.90;;;;;;4875256;29;20018;-94
2022/06/21 00:10:48;;;;;;;;;;;11.90;99.90;;;;;;4868717;29;19924;-92
2022/06/21 00:13:18;;;;;;;;;;;11.90;99.90;;;;;;4876960;29;19934;-93
2022/06/21 00:15:44;;;;;;;;;;;11.90;99.90;;;;;;4864320;29;19931;-93
2022/06/21 00:18:12;;;;;;;;;;;12.00;99.90;;;;;;4877964;29;19937;-93
2022/06/21 00:20:37;;;;;;;;;;;12.00;99.90;;;;;;4878806;29;19924;-93
2022/06/21 00:23:03;;;;;;;;;;;12.00;99.90;;;;;;4877606;29;19946;-93
2022/06/21 00:25:29;;;;;;;;;;;12.00;99.90;;;;;;4877255;29;19924;-93
2022/06/21 00:27:55;;;;;;;;;;;12.00;99.90;;;;;;4865320;29;19927;-93
2022/06/21 00:30:21;;;;;;;;;;;12.00;99.90;;;;;;4861116;29;19928;-93
2022/06/21 00:32:48;;;;;;;;;;;12.00;99.90;;;;;;4860241;29;20390;-93
2022/06/21 00:35:16;;;;;;;;;;;11.90;99.90;;;;;;4860299;29;20092;-93
2022/06/21 00:37:42;;;;;;;;;;;11.90;99.90;;;;;;4861015;29;19928;-93
2022/06/21 00:40:29;;;;;;;;;;;11.80;99.90;;;;;;4860956;29;19927;-92
2022/06/21 00:43:02;;;;;;;;;;;11.80;99.90;;;;;;4862876;29;19924;-92
2022/06/21 00:45:35;;;;;;;;;;;11.70;99.90;;;;;;4868100;29;19920;-92
2022/06/21 00:48:08;;;;;;;;;;;11.60;99.90;;;;;;4844502;29;19927;-93
2022/06/21 00:50:37;;;;;;;;;;;11.60;99.90;;;;;;4845109;29;19933;-93
2022/06/21 00:53:08;;;;;;;;;;;11.50;99.90;;;;;;4844847;29;20071;-93
2022/06/21 00:55:40;;;;;;;;;;;11.40;99.90;;;;;;4845245;29;19924;-92
2022/06/21 00:58:08;;;;;;;;;;;11.40;99.90;;;;;;4860730;29;20396;-93
2022/06/21 01:00:34;;;;;;;;;;;11.40;99.90;;;;;;4844817;29;19930;-93
2022/06/21 01:03:02;;;;;;;;;;;11.50;99.90;;;;;;4860771;29;19928;-93
2022/06/21 01:05:31;;;;;;;;;;;11.50;99.90;;;;;;4845070;29;19934;-93
2022/06/21 01:07:57;;;;;;;;;;;11.50;99.90;;;;;;4844610;29;19951;-93
2022/06/21 01:10:24;;;;;;;;;;;11.50;99.90;;;;;;4845893;29;19928;-93
2022/06/21 01:12:58;;;;;;;;;;;11.50;99.90;;;;;;4847047;29;20360;-93
2022/06/21 01:15:31;;;;;;;;;;;11.40;99.90;;;;;;4843893;29;19979;-93
2022/06/21 01:17:58;;;;;;;;;;;11.40;99.90;;;;;;4845120;29;20353;-93
2022/06/21 01:20:26;;;;;;;;;;;11.30;99.90;;;;;;4844828;29;20423;-93
2022/06/21 01:23:06;;;;;;;;;;;11.10;99.90;;;;;;4846108;29;19998;-93
2022/06/21 01:25:51;;;;;;;;;;;11.00;99.90;;;;;;4846858;29;19927;-92
2022/06/21 01:28:17;;;;;;;;;;;10.90;99.90;;;;;;4859310;29;19928;-93
2022/06/21 01:30:44;;;;;;;;;;;10.90;99.90;;;;;;4845348;29;19935;-93
2022/06/21 01:33:12;;;;;;;;;;;10.80;99.90;;;;;;4846356;29;19928;-92
2022/06/21 01:35:39;;;;;;;;;;;10.70;99.90;;;;;;4845851;29;19927;-93
2022/06/21 01:38:05;;;;;;;;;;;10.60;99.90;;;;;;4861564;29;19924;-94
2022/06/21 01:40:33;;;;;;;;;;;10.60;99.90;;;;;;4848520;29;19972;-93
2022/06/21 01:43:01;;;;;;;;;;;10.60;99.90;;;;;;4848108;29;19931;-93
2022/06/21 01:45:30;;;;;;;;;;;10.60;99.90;;;;;;4848154;29;20397;-93
2022/06/21 01:48:00;;;;;;;;;;;10.60;99.90;;;;;;4849526;29;19927;-93
2022/06/21 01:50:26;;;;;;;;;;;10.60;99.90;;;;;;4847015;29;19924;-93
2022/06/21 01:52:53;;;;;;;;;;;10.50;99.90;;;;;;4848446;29;19931;-92
2022/06/21 01:55:23;;;;;;;;;;;10.60;99.90;;;;;;4848137;29;20432;-93
2022/06/21 01:57:49;;;;;;;;;;;10.40;99.90;;;;;;4863010;29;19995;-94
2022/06/21 02:00:15;;;;;;;;;;;10.40;99.90;;;;;;4847757;29;19934;-93
2022/06/21 02:02:44;;;;;;;;;;;10.30;99.90;;;;;;4848270;29;19924;-93
2022/06/21 02:05:13;;;;;;;;;;;10.20;99.90;;;;;;4855985;29;19932;-93
2022/06/21 02:07:42;;;;;;;;;;;10.30;99.90;;;;;;4866682;29;19924;-93
2022/06/21 02:10:13;;;;;;;;;;;10.10;99.90;;;;;;4866088;29;20005;-93
2022/06/21 02:12:41;;;;;;;;;;;10.00;99.90;;;;;;4865928;29;19923;-93
2022/06/21 02:15:11;;;;;;;;;;;9.90;99.90;;;;;;4867413;29;19930;-93
2022/06/21 02:17:40;;;;;;;;;;;9.80;99.90;;;;;;4867603;29;19919;-93
2022/06/21 02:20:16;;;;;;;;;;;9.70;99.90;;;;;;4867221;29;19927;-93
2022/06/21 02:22:42;;;;;;;;;;;9.60;99.90;;;;;;4866036;29;19930;-93
2022/06/21 02:25:16;;;;;;;;;;;9.60;99.90;;;;;;4865887;29;19923;-93
2022/06/21 02:27:41;;;;;;;;;;;9.50;99.90;;;;;;4866187;29;19923;-93
2022/06/21 02:30:13;;;;;;;;;;;9.60;99.90;;;;;;4866072;29;19934;-92
2022/06/21 02:32:40;;;;;;;;;;;9.50;99.90;;;;;;4866100;29;20014;-93
2022/06/21 02:35:08;;;;;;;;;;;9.50;99.90;;;;;;4865368;29;19935;-93
2022/06/21 02:37:34;;;;;;;;;;;9.50;99.90;;;;;;4865782;29;19986;-93
2022/06/21 02:40:02;;;;;;;;;;;9.60;99.90;;;;;;4865654;29;19990;-93
2022/06/21 02:42:30;;;;;;;;;;;9.60;99.90;;;;;;4865622;29;20291;-93
2022/06/21 02:45:01;;;;;;;;;;;9.60;99.90;;;;;;4865891;29;19984;-93
2022/06/21 02:47:29;;;;;;;;;;;9.60;99.90;;;;;;4864847;29;19944;-93
2022/06/21 02:49:57;;;;;;;;;;;9.60;99.90;;;;;;4864610;29;19928;-93
2022/06/21 02:52:26;;;;;;;;;;;9.60;99.90;;;;;;4864873;29;20023;-93
2022/06/21 02:54:59;;;;;;;;;;;9.50;99.90;;;;;;4865115;29;19975;-93
2022/06/21 02:57:24;;;;;;;;;;;9.50;99.90;;;;;;4865642;29;19952;-93
2022/06/21 02:59:50;;;;;;;;;;;9.50;99.90;;;;;;4881240;29;19978;-94
2022/06/21 03:02:19;;;;;;;;;;;9.50;99.90;;;;;;4855134;29;19942;-94
2022/06/21 03:04:48;;;;;;;;;;;9.40;99.90;;;;;;4855379;29;19927;-94
2022/06/21 03:07:18;;;;;;;;;;;9.30;99.90;;;;;;4864457;29;19951;-93
2022/06/21 03:09:44;;;;;;;;;;;9.30;99.90;;;;;;4866332;29;20387;-93
2022/06/21 03:12:15;;;;;;;;;;;9.20;99.90;;;;;;4865821;29;19927;-93
2022/06/21 03:14:41;;;;;;;;;;;9.20;99.90;;;;;;4859549;29;19938;-93
2022/06/21 03:17:08;;;;;;;;;;;9.20;99.90;;;;;;4846781;29;20444;-93
2022/06/21 03:19:36;;;;;;;;;;;9.20;99.90;;;;;;4848795;29;19923;-93
2022/06/21 03:22:03;;;;;;;;;;;9.20;99.90;;;;;;4845991;29;19923;-93
2022/06/21 03:24:31;;;;;;;;;;;9.20;99.90;;;;;;4846693;29;19975;-93
2022/06/21 03:27:00;;;;;;;;;;;9.30;99.90;;;;;;4846730;29;19923;-95
2022/06/21 03:29:28;;;;;;;;;;;9.30;99.90;;;;;;4845767;29;19932;-94
2022/06/21 03:31:53;;;;;;;;;;;9.30;99.90;;;;;;4848622;29;20022;-94
2022/06/21 03:34:21;;;;;;;;;;;9.40;99.90;;;;;;4851645;29;20007;-94
2022/06/21 03:36:46;;;;;;;;;;;9.40;99.90;;;;;;4845860;29;19931;-92
2022/06/21 03:39:16;;;;;;;;;;;9.40;99.90;;;;;;4857328;29;20002;-93
2022/06/21 03:41:43;;;;;;;;;;;9.40;99.90;;;;;;4846349;29;19934;-94
2022/06/21 03:44:19;;;;;;;;;;;9.40;99.90;;;;;;4845015;29;19927;-94
2022/06/21 03:46:48;;;;;;;;;;;9.40;99.90;;;;;;4849005;29;19974;-95
2022/06/21 03:49:19;;;;;;;;;;;9.40;99.90;;;;;;4844720;29;19939;-94
2022/06/21 03:51:46;;;;;;;;;;;9.50;99.90;;;;;;4847881;29;19930;-94
2022/06/21 03:54:16;;;;;;;;;;;9.50;99.90;;;;;;4846819;29;19923;-93
2022/06/21 03:56:49;;;;;;;;;;;9.60;99.90;;;;;;4847158;29;19924;-94
2022/06/21 03:59:16;;;;;;;;;;;9.60;99.90;;;;;;4845895;29;20273;-94
2022/06/21 04:01:48;;;;;;;;;;;9.70;99.90;;;;;;4860802;29;19947;-95
2022/06/21 04:04:17;;;;;;;;;;;9.80;99.90;;;;;;4844740;29;20026;-94
2022/06/21 04:06:49;;;;;;;;;;;9.90;99.90;;;;;;4846348;29;19967;-94
2022/06/21 04:09:18;;;;;;;;;;;10.00;99.90;;;;;;4845297;29;20372;-94
2022/06/21 04:11:48;;;;;;;;;;;10.20;99.90;;;;;;4847299;29;19923;-94
2022/06/21 04:14:18;;;;;;;;;;;10.30;99.90;;;;;;4845426;29;19996;-94
2022/06/21 04:16:44;;;;;;;;;;;10.40;99.90;;;;;;4846094;29;19920;-93
2022/06/21 04:19:15;;;;;;;;;;;10.50;99.90;;;;;;4860174;29;19934;-93
2022/06/21 04:21:48;;;;;;;;;;;10.70;99.90;;;;;;4845479;29;19927;-93
2022/06/21 04:24:16;;;;;;;;;;;10.80;99.90;;;;;;4851514;29;19930;-93
2022/06/21 04:26:49;;;;;;;;;;;11.00;99.90;;;;;;4864000;29;19923;-94
2022/06/21 04:29:19;;;;;;;;;;;11.00;99.90;;;;;;4863303;29;19927;-94
2022/06/21 04:31:49;;;;;;;;;;;11.10;99.90;;;;;;4863326;29;19927;-94
2022/06/21 04:34:18;;;;;;;;;;;11.10;99.90;;;;;;4862826;29;19931;-94
2022/06/21 04:36:53;;;;;;;;;;;11.30;99.90;;;;;;4864032;29;20010;-93
2022/06/21 04:39:24;;;;;;;;;;;11.40;99.90;;;;;;4864610;29;20346;-94
2022/06/21 04:41:53;;;;;;;;;;;11.50;99.90;;;;;;4866137;29;19932;-93
2022/06/21 04:44:21;;;;;;;;;;;11.60;99.90;;;;;;4863699;29;19934;-93
2022/06/21 04:46:51;;;;;;;;;;;11.80;99.90;;;;;;4863676;29;20000;-93
2022/06/21 04:49:22;;;;;;;;;;;11.80;99.90;;;;;;4862721;29;19943;-93
2022/06/21 04:51:50;;;;;;;;;;;11.90;99.90;;;;;;4865185;29;19931;-93
2022/06/21 04:54:26;;;;;;;;;;;12.00;99.90;;;;;;4862251;29;19927;-93
2022/06/21 04:56:58;;;;;;;;;;;12.10;99.90;;;;;;4865230;29;20379;-94
2022/06/21 04:59:26;;;;;;;;;;;12.20;99.90;;;;;;4862449;29;20022;-92
2022/06/21 05:01:53;;;;;;;;;;;12.30;99.90;;;;;;4863909;29;20018;-93
2022/06/21 05:04:23;;;;;;;;;;;12.30;99.90;;;;;;4862615;29;19928;-93
2022/06/21 05:06:49;;;;;;;;;;;12.30;99.90;;;;;;4862666;29;19923;-93
2022/06/21 05:09:16;;;;;;;;;;;12.40;99.90;;;;;;4863243;29;19923;-93
2022/06/21 05:11:42;;;;;;;;;;;12.40;99.90;;;;;;4864097;29;19930;-93
2022/06/21 05:14:15;;;;;;;;;;;12.50;99.90;;;;;;4858512;29;19986;-93
2022/06/21 05:16:41;;;;;;;;;;;12.50;99.90;;;;;;4860608;29;20058;-93
2022/06/21 05:19:13;;;;;;;;;;;12.50;99.90;;;;;;4859007;29;20451;-93
2022/06/21 05:21:41;;;;;;;;;;;12.60;99.90;;;;;;4861989;29;20224;-94
2022/06/21 05:24:08;;;;;;;;;;;12.60;99.90;;;;;;4860288;29;20321;-93
2022/06/21 05:26:37;;;;;;;;;;;12.70;99.90;;;;;;4860348;29;19934;-94
2022/06/21 05:29:11;;;;;;;;;;;12.70;99.90;;;;;;4860882;29;19923;-93
2022/06/21 05:31:40;;;;;;;;;;;12.80;99.90;;;;;;4859839;29;19931;-94
2022/06/21 05:34:13;;;;;;;;;;;12.90;99.90;;;;;;4859253;29;19975;-93
2022/06/21 05:36:40;;;;;;;;;;;13.00;99.90;;;;;;4859658;29;20268;-94
2022/06/21 05:39:14;;;;;;;;;;;13.20;99.90;;;;;;4861479;29;19907;-93
2022/06/21 05:41:43;;;;;;;;;;;13.30;99.90;;;;;;4859180;29;20014;-94
2022/06/21 05:44:09;;;;;;;;;;;13.40;99.90;;;;;;4859587;29;19924;-94
2022/06/21 05:46:37;;;;;;;;;;;13.60;99.90;;;;;;4859346;29;19924;-95
2022/06/21 05:49:08;;;;;;;;;;;13.70;99.90;;;;;;4859002;29;19924;-94
2022/06/21 05:51:34;;;;;;;;;;;13.90;99.90;;;;;;4859818;29;19927;-94
2022/06/21 05:54:01;;;;;;;;;;;14.00;99.90;;;;;;4859686;29;20361;-94
2022/06/21 05:56:29;;;;;;;;;;;14.00;99.90;;;;;;4858798;29;20384;-95
2022/06/21 05:58:58;;;;;;;;;;;14.20;99.90;;;;;;4860042;29;19923;-94
2022/06/21 06:01:27;;;;;;;;;;;14.30;99.90;;;;;;4859560;29;20027;-94
2022/06/21 06:03:58;;;;;;;;;;;14.40;99.90;;;;;;4860135;29;19931;-94
2022/06/21 06:06:24;;;;;;;;;;;14.50;99.90;;;;;;4858836;29;19983;-93
2022/06/21 06:08:53;;;;;;;;;;;14.60;99.90;;;;;;4859792;29;19928;-92
2022/06/21 06:11:22;;;;;;;;;;;14.80;99.90;;;;;;4861316;29;19928;-94
2022/06/21 06:13:49;;;;;;;;;;;14.70;99.90;;;;;;4860103;29;19924;-92
2022/06/21 06:16:21;;;;;;;;;;;14.90;99.90;;;;;;4861817;29;19955;-93
2022/06/21 06:18:49;;;;;;;;;;;15.00;99.90;;;;;;4871498;29;20438;-91
2022/06/21 06:21:20;;;;;;;;;;;15.20;99.90;;;;;;4855017;29;20292;-90
2022/06/21 06:23:51;;;;;;;;;;;15.40;99.90;;;;;;4874663;29;19927;-90
2022/06/21 06:26:20;;;;;;;;;;;15.50;99.90;;;;;;4865777;29;20279;-90
2022/06/21 06:28:51;;;;;;;;;;;15.50;99.90;;;;;;4862312;29;19942;-90
2022/06/21 06:31:27;;;;;;;;;;;15.50;99.90;;;;;;4855674;29;20431;-95
2022/06/21 06:33:55;;;;;;;;;;;15.30;99.90;;;;;;4862599;29;20393;-94
2022/06/21 06:36:24;;;;;;;;;;;15.60;99.90;;;;;;4864025;29;19935;-95
2022/06/21 06:38:50;;;;;;;;;;;15.70;99.90;;;;;;4861888;29;19923;-94
2022/06/21 06:41:26;;;;;;;;;;;15.80;99.90;;;;;;4858568;29;20038;-95
2022/06/21 06:43:59;;;;;;;;;;;15.90;99.90;;;;;;4848446;29;19950;-94
2022/06/21 06:46:32;;;;;;;;;;;15.90;99.90;;;;;;4845904;29;19923;-94
2022/06/21 06:49:06;;;;;;;;;;;16.00;99.90;;;;;;4854658;29;20213;-94
2022/06/21 06:51:39;;;;;;;;;;;16.30;99.90;;;;;;4866460;29;19927;-95
2022/06/21 06:54:14;;;;;;;;;;;16.60;99.90;;;;;;4863960;29;20010;-96
2022/06/21 06:56:50;;;;;;;;;;;16.80;99.90;;;;;;4865126;29;20434;-96
2022/06/21 06:59:20;;;;;;;;;;;17.00;99.90;;;;;;4868889;29;20427;-95
2022/06/21 07:01:57;;;;;;;;;;;17.10;99.90;;;;;;4865615;29;19931;-95
2022/06/21 07:04:23;;;;;;;;;;;17.10;99.90;;;;;;4864681;29;19928;-95
2022/06/21 07:06:54;;;;;;;;;;;17.10;99.90;;;;;;4860013;29;19947;-95
2022/06/21 07:09:32;;;;;;;;;;;17.10;99.90;;;;;;4865788;29;19943;-95
2022/06/21 07:12:02;;;;;;;;;;;16.90;99.90;;;;;;4865005;29;20257;-95
2022/06/21 07:14:31;;;;;;;;;;;16.60;99.90;;;;;;4863185;29;19931;-95
2022/06/21 07:17:06;;;;;;;;;;;16.60;99.90;;;;;;4869029;29;19931;-94
2022/06/21 07:19:42;;;;;;;;;;;16.40;99.90;;;;;;4863933;29;20376;-95
2022/06/21 07:22:16;;;;;;;;;;;16.30;99.90;;;;;;4863637;29;19930;-95
2022/06/21 07:24:45;;;;;;;;;;;16.40;99.90;;;;;;4864271;29;20435;-96
2022/06/21 07:27:13;;;;;;;;;;;16.60;99.90;;;;;;4866041;29;19927;-96
2022/06/21 07:29:56;;;;;;;;;;;16.70;99.90;;;;;;4867161;29;19930;-96
2022/06/21 07:32:25;;;;;;;;;;;16.90;99.90;;;;;;4868898;29;20808;-95
2022/06/21 07:35:04;;;;;;;;;;;17.00;99.90;;;;;;4866148;29;19934;-94
2022/06/21 07:37:41;;;;;;;;;;;17.20;99.90;;;;;;4866018;29;19981;-95
2022/06/21 07:40:25;;;;;;;;;;;17.30;99.90;;;;;;4865565;29;19939;-96
2022/06/21 07:43:00;;;;;;;;;;;17.10;99.90;;;;;;4880547;29;19938;-95
2022/06/21 07:45:47;;;;;;;;;;;17.00;99.90;;;;;;4865688;29;20026;-96
2022/06/21 07:48:28;;;;;;;;;;;16.80;99.90;;;;;;4867598;29;19928;-95
2022/06/21 07:50:57;;;;;;;;;;;17.10;99.90;;;;;;4870462;29;19927;-96
2022/06/21 07:53:29;;;;;;;;;;;17.20;99.90;;;;;;4871139;29;19923;-95
2022/06/21 07:56:04;;;;;;;;;;;17.40;99.90;;;;;;4863487;29;19927;-94
2022/06/21 07:58:32;;;;;;;;;;;17.20;99.90;;;;;;4863423;29;20471;-96
2022/06/21 08:06:41;;;;;;;;;;;17.50;99.90;;;;;;4879371;29;19927;-96
2022/06/21 08:09:40;;;;;;;;;;;17.60;99.90;;;;;;4870651;29;19931;-96
2022/06/21 08:12:11;;;;;;;;;;;17.70;99.90;;;;;;4877299;29;19979;-96
2022/06/21 08:14:38;;;;;;;;;;;17.80;99.90;;;;;;4865998;29;20010;-90
2022/06/21 08:17:12;;;;;;;;;;;17.90;99.90;;;;;;4853993;29;20018;-91
2022/06/21 08:19:42;;;;;;;;;;;18.10;99.90;;;;;;4865215;29;19923;-92
2022/06/21 08:22:15;;;;;;;;;;;18.20;99.90;;;;;;4854950;29;19930;-93
2022/06/21 08:24:42;;;;;;;;;;;18.10;99.90;;;;;;4852577;29;19931;-91
2022/06/21 08:27:34;;;;;;;;;;;17.90;99.90;;;;;;4861222;29;19975;-91
2022/06/21 08:30:09;;;;;;;;;;;18.00;99.90;;;;;;4852661;29;19983;-92
2022/06/21 08:32:41;;;;;;;;;;;18.20;99.90;;;;;;4863339;29;19934;-92
2022/06/21 08:35:13;;;;;;;;;;;18.50;99.90;;;;;;4861325;29;19991;-93
2022/06/21 08:37:44;;;;;;;;;;;18.70;99.90;;;;;;4851847;29;20269;-91
2022/06/21 08:40:09;;;;;;;;;;;19.00;99.90;;;;;;4847327;29;19946;-93
2022/06/21 08:42:36;;;;;;;;;;;19.20;99.90;;;;;;4852721;29;20374;-95
2022/06/21 08:48:05;;;;;;;;;;;19.50;99.90;;;;;;4869118;29;19927;-92
2022/06/21 08:50:32;;;;;;;;;;;19.50;99.90;;;;;;4870178;29;20774;-93
2022/06/21 08:53:16;;;;;;;;;;;19.50;99.90;;;;;;4860262;29;19927;-93
2022/06/21 08:55:52;;;;;;;;;;;19.50;99.90;;;;;;4873344;29;19974;-91
2022/06/21 08:58:25;;;;;;;;;;;19.50;99.90;;;;;;4855361;29;19970;-91
2022/06/21 09:01:00;;;;;;;;;;;19.50;99.90;;;;;;4858833;29;19931;-90
2022/06/21 09:03:45;;;;;;;;;;;19.50;99.90;;;;;;4866966;29;19967;-90
2022/06/21 09:06:16;;;;;;;;;;;19.30;99.90;;;;;;4865128;29;20372;-90
2022/06/21 09:08:57;;;;;;;;;;;19.00;99.90;;;;;;4846012;29;19956;-90
2022/06/21 09:11:38;;;;;;;;;;;18.90;99.90;;;;;;4850612;29;20750;-90
2022/06/21 09:14:12;;;;;;;;;;;18.80;99.90;;;;;;4867452;29;19979;-90
2022/06/21 09:16:38;;;;;;;;;;;18.90;99.90;;;;;;4867786;29;19923;-90
2022/06/21 09:19:10;;;;;;;;;;;19.00;99.90;;;;;;4871491;29;19946;-90
2022/06/21 09:21:41;;;;;;;;;;;19.10;99.90;;;;;;4848571;29;20022;-88
2022/06/21 09:24:17;;;;;;;;;;;19.20;99.90;;;;;;4859281;29;19967;-89
2022/06/21 09:26:49;;;;;;;;;;;19.30;99.90;;;;;;4859372;29;20392;-90
2022/06/21 09:29:18;;;;;;;;;;;19.50;99.90;;;;;;4870649;29;19935;-89
2022/06/21 09:31:44;;;;;;;;;;;19.70;99.90;;;;;;4846931;29;20019;-90
2022/06/21 09:34:21;;;;;;;;;;;19.80;99.90;;;;;;4875732;29;20014;-92
2022/06/21 09:37:01;;;;;;;;;;;20.00;99.90;;;;;;4858011;29;19981;-91
2022/06/21 09:39:31;;;;;;;;;;;20.00;99.90;;;;;;4853708;29;19928;-91
2022/06/21 09:42:01;;;;;;;;;;;19.80;99.90;;;;;;4855427;29;20376;-88
2022/06/21 09:44:37;;;;;;;;;;;19.70;99.90;;;;;;4861281;29;19983;-89
2022/06/21 09:47:12;;;;;;;;;;;19.40;99.90;;;;;;4850502;29;19927;-90
2022/06/21 09:49:43;;;;;;;;;;;19.20;99.90;;;;;;4871633;29;20506;-87
2022/06/21 09:52:11;;;;;;;;;;;19.30;99.90;;;;;;4855122;29;19923;-90
2022/06/21 09:54:38;;;;;;;;;;;19.40;99.90;;;;;;4877436;29;19971;-91
2022/06/21 09:57:11;;;;;;;;;;;19.70;99.90;;;;;;4858987;29;19930;-90
2022/06/21 09:59:43;;;;;;;;;;;19.90;99.90;;;;;;4869041;29;19983;-90
2022/06/21 10:02:08;;;;;;;;;;;19.90;99.90;;;;;;4848421;29;21019;-90
2022/06/21 10:04:44;;;;;;;;;;;19.90;99.90;;;;;;4876631;29;19924;-89
2022/06/21 10:07:14;;;;;;;;;;;19.70;99.90;;;;;;4873728;29;20380;-91
2022/06/21 10:09:46;;;;;;;;;;;19.80;99.90;;;;;;4870628;29;19919;-89
2022/06/21 10:12:11;;;;;;;;;;;20.00;99.90;;;;;;4867545;29;19923;-89
2022/06/21 10:15:01;;;;;;;;;;;20.00;99.90;;;;;;4861561;29;20266;-89
2022/06/21 10:17:30;;;;;;;;;;;19.90;99.90;;;;;;4849366;29;19923;-89
2022/06/21 10:19:57;;;;;;;;;;;19.70;99.90;;;;;;4870802;29;20002;-89
2022/06/21 10:22:31;;;;;;;;;;;19.50;99.90;;;;;;4880103;29;20508;-89
2022/06/21 10:25:05;;;;;;;;;;;19.60;99.90;;;;;;4881578;29;19924;-89
2022/06/21 10:27:38;;;;;;;;;;;20.00;99.90;;;;;;4854151;29;19935;-89
2022/06/21 10:30:11;;;;;;;;;;;20.40;99.90;;;;;;4860616;29;19931;-90
2022/06/21 10:32:53;;;;;;;;;;;20.80;99.90;;;;;;4861726;29;19928;-89
2022/06/21 10:35:30;;;;;;;;;;;21.10;99.90;;;;;;4858808;29;20031;-89
2022/06/21 10:38:03;;;;;;;;;;;21.30;99.90;;;;;;4859692;29;20010;-90
2022/06/21 10:40:48;;;;;;;;;;;21.40;99.90;;;;;;4861111;29;20010;-91
2022/06/21 10:43:43;;;;;;;;;;;21.50;99.90;;;;;;4846934;29;19924;-89
2022/06/21 10:46:10;;;;;;;;;;;21.50;99.90;;;;;;4849613;29;19938;-90
2022/06/21 10:48:46;;;;;;;;;;;21.50;99.90;;;;;;4847530;29;20018;-91
2022/06/21 10:51:19;;;;;;;;;;;21.60;99.90;;;;;;4862987;29;20009;-90
2022/06/21 10:54:03;;;;;;;;;;;21.80;99.90;;;;;;4857434;29;19960;-93
2022/06/21 11:01:16;;;;;;;;;;;22.10;99.90;;;;;;4871286;29;19932;-96
2022/06/21 11:02:29;;;;;;;;;;;22.20;99.90;;;;;;4865940;29;20038;-96
2022/06/21 11:05:02;;;;;;;;;;;22.30;99.90;;;;;;4849830;29;19931;-96
2022/06/21 11:07:36;;;;;;;;;;;22.20;99.90;;;;;;4851366;29;19928;-96
2022/06/21 11:10:05;;;;;;;;;;;22.30;99.90;;;;;;4848946;29;20308;-96
2022/06/21 11:12:56;;;;;;;;;;;22.30;99.90;;;;;;4848591;29;19942;-96
2022/06/21 11:15:22;;;;;;;;;;;22.30;99.90;;;;;;4847800;29;19935;-96
2022/06/21 11:17:55;;;;;;;;;;;22.20;99.90;;;;;;4863821;29;19920;-96
2022/06/21 11:20:27;;;;;;;;;;;22.20;99.90;;;;;;4846254;29;19928;-96
2022/06/21 11:23:06;;;;;;;;;;;22.20;99.90;;;;;;4850365;29;19919;-96
2022/06/21 11:25:31;;;;;;;;;;;22.20;99.90;;;;;;4847814;29;19983;-96
2022/06/21 11:28:17;;;;;;;;;;;22.10;99.90;;;;;;4872291;29;20061;-96
2022/06/21 11:30:49;;;;;;;;;;;22.20;99.90;;;;;;4865897;29;19923;-96
2022/06/21 11:33:15;;;;;;;;;;;22.20;99.90;;;;;;4866807;29;19931;-96
2022/06/21 11:35:44;;;;;;;;;;;22.30;99.90;;;;;;4881450;29;19994;-96
2022/06/21 11:38:14;;;;;;;;;;;22.40;99.90;;;;;;4864832;29;19931;-96
2022/06/21 11:40:39;;;;;;;;;;;22.50;99.90;;;;;;4881154;29;19927;-96
2022/06/21 11:43:11;;;;;;;;;;;22.40;99.90;;;;;;4880919;29;19919;-96
2022/06/21 11:45:38;;;;;;;;;;;22.40;99.90;;;;;;4866830;29;19974;-96
2022/06/21 11:48:15;;;;;;;;;;;22.30;99.90;;;;;;4880209;29;20398;-96
2022/06/21 11:50:55;;;;;;;;;;;22.40;99.90;;;;;;4868287;29;20009;-96
2022/06/21 11:53:50;;;;;;;;;;;22.40;99.90;;;;;;4865823;29;20008;-96
2022/06/21 11:56:22;;;;;;;;;;;22.40;99.90;;;;;;4865384;29;19927;-96
2022/06/21 11:58:52;;;;;;;;;;;22.50;99.90;;;;;;4867748;29;20003;-96
2022/06/21 12:01:23;;;;;;;;;;;22.60;99.90;;;;;;4881675;29;19926;-96
2022/06/21 12:03:48;;;;;;;;;;;22.70;99.90;;;;;;4865704;29;20012;-96
2022/06/21 12:06:19;;;;;;;;;;;22.80;99.90;;;;;;4864227;29;20356;-96
2022/06/21 12:08:51;;;;;;;;;;;22.80;99.90;;;;;;4863946;29;19924;-96
2022/06/21 12:11:21;;;;;;;;;;;22.80;99.90;;;;;;4870295;29;20333;-96
2022/06/21 12:13:49;;;;;;;;;;;22.80;99.90;;;;;;4866374;29;20014;-96
2022/06/21 12:16:21;;;;;;;;;;;22.80;99.90;;;;;;4866585;29;19983;-96
2022/06/21 12:18:51;;;;;;;;;;;22.80;99.90;;;;;;4871383;29;19923;-96
2022/06/21 12:21:20;;;;;;;;;;;22.80;99.90;;;;;;4875735;29;19946;-96
2022/06/21 12:23:49;;;;;;;;;;;22.80;97.80;;;;;;4883534;29;19907;-96
2022/06/21 12:26:16;;;;;;;;;;;22.80;99.90;;;;;;4874518;29;19924;-96
2022/06/21 12:28:42;;;;;;;;;;;22.90;99.90;;;;;;4872575;29;19929;-96
2022/06/21 12:31:18;;;;;;;;;;;22.90;99.90;;;;;;4874062;29;19992;-96
2022/06/21 12:33:46;;;;;;;;;;;22.90;99.90;;;;;;4874106;29;19931;-96
2022/06/21 12:36:13;;;;;;;;;;;22.90;99.60;;;;;;4872833;29;19923;-96
2022/06/21 12:38:42;;;;;;;;;;;22.80;99.10;;;;;;4874080;29;19927;-96
2022/06/21 12:41:15;;;;;;;;;;;22.90;97.70;;;;;;4872204;29;20006;-96
2022/06/21 12:43:46;;;;;;;;;;;22.90;99.90;;;;;;4874936;29;19927;-96
2022/06/21 12:46:17;;;;;;;;;;;22.90;99.00;;;;;;4869446;29;19924;-96
2022/06/21 12:48:43;;;;;;;;;;;23.00;98.40;;;;;;4869384;29;19927;-96
2022/06/21 12:51:11;;;;;;;;;;;22.90;98.70;;;;;;4881802;29;19927;-96
2022/06/21 12:53:40;;;;;;;;;;;22.90;96.80;;;;;;4883552;29;19931;-96
2022/06/21 12:56:10;;;;;;;;;;;22.90;97.10;;;;;;4883348;29;19927;-96
2022/06/21 12:58:56;;;;;;;;;;;22.90;97.90;;;;;;4881301;29;19935;-96
2022/06/21 13:01:25;;;;;;;;;;;23.00;96.50;;;;;;4866883;29;20237;-96
2022/06/21 13:03:58;;;;;;;;;;;23.00;95.40;;;;;;4864524;29;19931;-96
2022/06/21 13:06:23;;;;;;;;;;;23.10;98.60;;;;;;4880236;29;19923;-96
2022/06/21 13:08:55;;;;;;;;;;;23.20;99.40;;;;;;4879664;29;20037;-96
2022/06/21 13:11:22;;;;;;;;;;;23.30;99.50;;;;;;4878536;29;20383;-96
2022/06/21 13:13:55;;;;;;;;;;;23.30;99.10;;;;;;4879391;29;20287;-95
2022/06/21 13:16:20;;;;;;;;;;;23.30;98.20;;;;;;4866179;29;20390;-95
2022/06/21 13:18:55;;;;;;;;;;;23.30;95.20;;;;;;4890323;29;19938;-96
2022/06/21 13:21:31;;;;;;;;;;;23.20;88.20;;;;;;4878799;29;19938;-96
2022/06/21 13:24:30;;;;;;;;;;;23.10;89.50;;;;;;4880647;29;19927;-96
2022/06/21 13:27:05;;;;;;;;;;;23.10;95.70;;;;;;4866860;29;19924;-96
2022/06/21 13:29:32;;;;;;;;;;;23.10;97.90;;;;;;4865519;29;20388;-96
2022/06/21 13:32:00;;;;;;;;;;;23.00;96.60;;;;;;4880428;29;19923;-95
2022/06/21 13:34:41;;;;;;;;;;;22.90;97.30;;;;;;4867692;29;19929;-96
2022/06/21 13:37:08;;;;;;;;;;;22.90;97.20;;;;;;4867786;29;19924;-96
2022/06/21 13:39:46;;;;;;;;;;;22.90;97.60;;;;;;4883301;29;20383;-96
2022/06/21 13:45:07;;;;;;;;;;;22.70;97.80;;;;;;4875801;29;19967;-96
2022/06/21 13:47:45;;;;;;;;;;;22.70;96.40;;;;;;4861973;29;19928;-96
2022/06/21 13:50:20;;;;;;;;;;;22.70;95.90;;;;;;4868866;29;20431;-96
2022/06/21 13:52:55;;;;;;;;;;;22.70;96.60;;;;;;4873967;29;19912;-96
2022/06/21 13:55:26;;;;;;;;;;;22.70;97.10;;;;;;4883986;29;19927;-96
2022/06/21 13:57:56;;;;;;;;;;;22.80;97.80;;;;;;4855838;29;19924;-96
2022/06/21 14:00:26;;;;;;;;;;;22.80;94.50;;;;;;4878629;29;20761;-95
2022/06/21 14:02:58;;;;;;;;;;;22.80;97.50;;;;;;4858070;29;19923;-96
2022/06/21 14:05:31;;;;;;;;;;;22.80;97.10;;;;;;4851545;29;20380;-96
2022/06/21 14:08:00;;;;;;;;;;;22.80;95.70;;;;;;4853420;29;20037;-94
2022/06/21 14:10:37;;;;;;;;;;;22.80;96.90;;;;;;4862936;29;19923;-95
2022/06/21 14:13:16;;;;;;;;;;;22.90;98.60;;;;;;4860136;29;19931;-96
2022/06/21 14:15:47;;;;;;;;;;;22.70;98.50;;;;;;4866481;29;20293;-93
2022/06/21 14:18:24;;;;;;;;;;;22.90;96.20;;;;;;4871504;29;19930;-91
2022/06/21 14:20:52;;;;;;;;;;;22.80;97.50;;;;;;4855413;29;19971;-90
2022/06/21 14:23:24;;;;;;;;;;;22.70;96.80;;;;;;4867416;29;20436;-91
2022/06/21 14:25:54;;;;;;;;;;;22.70;98.70;;;;;;4867367;29;19923;-90
2022/06/21 14:28:23;;;;;;;;;;;22.60;94.30;;;;;;4859236;29;19924;-91
2022/06/21 14:30:52;;;;;;;;;;;22.60;96.40;;;;;;4862802;29;19928;-91
2022/06/21 14:33:26;;;;;;;;;;;22.50;97.00;;;;;;4853277;29;19930;-90
2022/06/21 14:35:56;;;;;;;;;;;22.40;96.10;;;;;;4875285;29;20020;-90
2022/06/21 14:38:25;;;;;;;;;;;22.30;97.60;;;;;;4857424;29;19928;-91
2022/06/21 14:40:54;;;;;;;;;;;22.30;97.90;;;;;;4859070;29;19927;-90
2022/06/21 14:43:32;;;;;;;;;;;22.30;98.20;;;;;;4855289;29;19963;-91
2022/06/21 14:46:02;;;;;;;;;;;22.30;98.00;;;;;;4880003;29;19966;-91
2022/06/21 14:48:27;;;;;;;;;;;22.30;98.90;;;;;;4857309;29;19935;-91
2022/06/21 14:50:55;;;;;;;;;;;22.50;99.50;;;;;;4865737;29;19923;-90
2022/06/21 14:53:21;;;;;;;;;;;22.50;98.40;;;;;;4847404;29;19927;-90
2022/06/21 14:55:53;;;;;;;;;;;22.50;99.60;;;;;;4863102;29;19924;-91